Wetterdaten: Woche 26.10.09 - 01.11.09 (KW44)
Datum Zeit Temperatur Luftfeuchte Luftdruck Niederschlag Windrichtung Wind
26.10.2009 00:00 10,2 C 97 % 1017,6 hPa 0,0 l/m N-NW 4,1 km/h (1 Bft)
26.10.2009 01:00 9,9 C 97 % 1017,6 hPa 0,0 l/m N 0,3 km/h (0 Bft)
26.10.2009 02:00 9,8 C 97 % 1017,4 hPa 0,2 l/m S-SW 3,9 km/h (1 Bft)
26.10.2009 03:00 9,5 C 97 % 1017,4 hPa 0,0 l/m N 0,4 km/h (0 Bft)
26.10.2009 04:00 9,3 C 97 % 1017,4 hPa 0,0 l/m N 0,0 km/h (0 Bft)
26.10.2009 05:00 9,1 C 97 % 1017,5 hPa 0,0 l/m N 0,7 km/h (0 Bft)
26.10.2009 06:00 8,7 C 97 % 1017,6 hPa 0,0 l/m S-SW 1,6 km/h (1 Bft)
26.10.2009 07:00 8,4 C 98 % 1018,2 hPa 0,0 l/m S-SW 4,1 km/h (1 Bft)
26.10.2009 08:00 9,1 C 99 % 1018,8 hPa 0,0 l/m SW 3,7 km/h (1 Bft)
26.10.2009 09:00 9,8 C 99 % 1019,0 hPa 0,0 l/m N 2,7 km/h (1 Bft)
26.10.2009 10:00 10,6 C 99 % 1019,4 hPa 0,0 l/m S-SO 2,7 km/h (1 Bft)
26.10.2009 11:00 11,7 C 92 % 1019,4 hPa 0,0 l/m W 5,2 km/h (1 Bft)
26.10.2009 12:00 12,0 C 87 % 1019,1 hPa 0,0 l/m W 9,0 km/h (2 Bft)
26.10.2009 13:00 12,4 C 80 % 1018,9 hPa 0,0 l/m W-NW 10,3 km/h (2 Bft)
26.10.2009 14:00 12,4 C 79 % 1019,0 hPa 0,0 l/m W-NW 7,8 km/h (2 Bft)
26.10.2009 15:00 12,3 C 74 % 1019,1 hPa 0,0 l/m W 9,2 km/h (2 Bft)
26.10.2009 16:00 11,9 C 76 % 1019,7 hPa 0,0 l/m W 5,2 km/h (1 Bft)
26.10.2009 17:00 10,8 C 80 % 1020,5 hPa 0,0 l/m W-NW 4,7 km/h (1 Bft)
26.10.2009 18:00 10,0 C 79 % 1021,1 hPa 0,0 l/m W-NW 6,1 km/h (2 Bft)
26.10.2009 19:00 9,6 C 81 % 1021,4 hPa 0,0 l/m W 4,7 km/h (1 Bft)
26.10.2009 20:00 9,2 C 83 % 1021,6 hPa 0,0 l/m W 3,6 km/h (1 Bft)
26.10.2009 21:00 8,8 C 83 % 1021,8 hPa 0,0 l/m W-NW 6,8 km/h (2 Bft)
26.10.2009 22:00 9,2 C 72 % 1021,7 hPa 0,0 l/m W 11,3 km/h (2 Bft)
26.10.2009 23:00 9,5 C 75 % 1021,6 hPa 0,0 l/m SW 7,8 km/h (2 Bft)
27.10.2009 00:00 8,6 C 83 % 1021,7 hPa 0,0 l/m SW 2,5 km/h (1 Bft)
27.10.2009 01:00 8,2 C 86 % 1022,0 hPa 0,0 l/m N 0,5 km/h (0 Bft)
27.10.2009 02:00 7,9 C 88 % 1022,1 hPa 0,0 l/m N 0,4 km/h (0 Bft)
27.10.2009 03:00 7,6 C 90 % 1021,9 hPa 0,0 l/m N 0,0 km/h (0 Bft)
27.10.2009 04:00 7,4 C 90 % 1021,7 hPa 0,0 l/m N 0,0 km/h (0 Bft)
27.10.2009 05:00 7,2 C 91 % 1021,8 hPa 0,0 l/m N 0,1 km/h (0 Bft)
27.10.2009 06:00 6,9 C 92 % 1021,8 hPa 0,0 l/m N 0,0 km/h (0 Bft)
27.10.2009 07:00 6,9 C 94 % 1022,3 hPa 0,0 l/m N 0,5 km/h (0 Bft)
27.10.2009 08:00 7,7 C 94 % 1022,7 hPa 0,0 l/m S 1,9 km/h (1 Bft)
27.10.2009 09:00 9,6 C 84 % 1022,7 hPa 0,0 l/m NO 3,6 km/h (1 Bft)
27.10.2009 10:00 11,5 C 73 % 1022,7 hPa 0,0 l/m NO 6,6 km/h (2 Bft)
27.10.2009 11:00 12,5 C 70 % 1022,5 hPa 0,0 l/m O 8,9 km/h (2 Bft)
27.10.2009 12:00 12,8 C 65 % 1021,9 hPa 0,0 l/m NO 7,4 km/h (2 Bft)
27.10.2009 13:00 13,5 C 63 % 1021,3 hPa 0,0 l/m NO 11,2 km/h (2 Bft)
27.10.2009 14:00 13,7 C 63 % 1020,7 hPa 0,0 l/m O 11,1 km/h (2 Bft)
27.10.2009 15:00 13,3 C 65 % 1020,7 hPa 0,0 l/m O-SO 9,7 km/h (2 Bft)
27.10.2009 16:00 12,5 C 69 % 1020,8 hPa 0,0 l/m O-NO 7,2 km/h (2 Bft)
27.10.2009 17:00 9,6 C 83 % 1021,3 hPa 0,0 l/m N 1,3 km/h (1 Bft)
27.10.2009 18:00 7,9 C 90 % 1021,7 hPa 0,0 l/m N 1,9 km/h (1 Bft)
27.10.2009 19:00 7,0 C 92 % 1021,7 hPa 0,0 l/m NO 2,3 km/h (1 Bft)
27.10.2009 20:00 6,6 C 94 % 1021,7 hPa 0,0 l/m NO 1,6 km/h (1 Bft)
27.10.2009 21:00 6,2 C 95 % 1021,9 hPa 0,0 l/m N 2,9 km/h (1 Bft)
27.10.2009 22:00 6,1 C 95 % 1021,6 hPa 0,0 l/m N 3,3 km/h (1 Bft)
27.10.2009 23:00 5,5 C 96 % 1021,2 hPa 0,0 l/m N 3,5 km/h (1 Bft)
28.10.2009 00:00 5,2 C 97 % 1021,2 hPa 0,0 l/m N-NW 5,3 km/h (1 Bft)
28.10.2009 01:00 4,6 C 97 % 1021,0 hPa 0,0 l/m N-NW 2,0 km/h (1 Bft)
28.10.2009 02:00 4,0 C 96 % 1021,0 hPa 0,0 l/m N 1,3 km/h (1 Bft)
28.10.2009 03:00 3,4 C 96 % 1021,0 hPa 0,0 l/m N 0,9 km/h (0 Bft)
28.10.2009 04:00 2,8 C 96 % 1021,0 hPa 0,0 l/m N 0,1 km/h (0 Bft)
28.10.2009 05:00 1,9 C 95 % 1021,1 hPa 0,0 l/m N 0,0 km/h (0 Bft)
28.10.2009 06:00 1,8 C 97 % 1021,4 hPa 0,0 l/m N 0,8 km/h (0 Bft)
28.10.2009 07:00 2,3 C 98 % 1021,7 hPa 0,2 l/m N 1,7 km/h (1 Bft)
28.10.2009 08:00 3,2 C 98 % 1021,9 hPa 0,0 l/m N-NW 4,3 km/h (1 Bft)
28.10.2009 09:00 4,5 C 99 % 1021,7 hPa 0,0 l/m S-SW 6,2 km/h (2 Bft)
28.10.2009 10:00 5,7 C 99 % 1021,7 hPa 0,0 l/m S-SW 4,5 km/h (1 Bft)
28.10.2009 11:00 7,0 C 98 % 1021,4 hPa 0,0 l/m S-SO 5,5 km/h (1 Bft)
28.10.2009 12:00 8,5 C 93 % 1021,0 hPa 0,0 l/m W-SW 7,6 km/h (2 Bft)
28.10.2009 13:00 9,2 C 92 % 1020,6 hPa 0,0 l/m S-SW 7,7 km/h (2 Bft)
28.10.2009 14:00 10,2 C 90 % 1020,3 hPa 0,0 l/m S-SW 7,1 km/h (2 Bft)
28.10.2009 15:00 11,2 C 87 % 1020,0 hPa 0,0 l/m S-SW 7,3 km/h (2 Bft)
28.10.2009 16:00 10,8 C 88 % 1019,9 hPa 0,0 l/m S-SW 5,1 km/h (1 Bft)
28.10.2009 17:00 10,2 C 88 % 1020,2 hPa 0,0 l/m N 0,4 km/h (0 Bft)
28.10.2009 18:00 8,9 C 90 % 1020,1 hPa 0,0 l/m N 0,0 km/h (0 Bft)
28.10.2009 19:00 7,6 C 91 % 1019,8 hPa 0,0 l/m N 0,0 km/h (0 Bft)
28.10.2009 20:00 6,5 C 93 % 1019,7 hPa 0,0 l/m S-SW 1,6 km/h (1 Bft)
28.10.2009 21:00 5,8 C 94 % 1020,0 hPa 0,0 l/m N 0,9 km/h (0 Bft)
28.10.2009 22:00 5,0 C 94 % 1020,2 hPa 0,0 l/m N 0,4 km/h (0 Bft)
28.10.2009 23:00 4,4 C 95 % 1020,0 hPa 0,0 l/m N 0,0 km/h (0 Bft)
29.10.2009 00:00 4,0 C 95 % 1019,9 hPa 0,0 l/m N 0,0 km/h (0 Bft)
29.10.2009 01:00 3,5 C 95 % 1020,0 hPa 0,0 l/m N 0,1 km/h (0 Bft)
29.10.2009 02:00 3,0 C 95 % 1019,8 hPa 0,0 l/m N 0,4 km/h (0 Bft)
29.10.2009 03:00 2,3 C 95 % 1019,7 hPa 0,0 l/m N 0,0 km/h (0 Bft)
29.10.2009 04:00 2,0 C 96 % 1019,9 hPa 0,0 l/m N 0,3 km/h (0 Bft)
29.10.2009 05:00 1,6 C 96 % 1020,1 hPa 0,0 l/m N 0,0 km/h (0 Bft)
29.10.2009 06:00 1,3 C 96 % 1020,3 hPa 0,0 l/m N 0,4 km/h (0 Bft)
29.10.2009 07:00 1,3 C 97 % 1020,6 hPa 0,0 l/m N 0,0 km/h (0 Bft)
29.10.2009 08:00 2,1 C 98 % 1021,1 hPa 0,0 l/m N 2,0 km/h (1 Bft)
29.10.2009 09:00 3,3 C 98 % 1021,4 hPa 0,0 l/m N 1,9 km/h (1 Bft)
29.10.2009 10:00 4,5 C 99 % 1021,5 hPa 0,0 l/m S 2,5 km/h (1 Bft)
29.10.2009 11:00 6,3 C 99 % 1021,5 hPa 0,0 l/m SW 4,7 km/h (1 Bft)
29.10.2009 12:00 9,5 C 92 % 1021,1 hPa 0,0 l/m S-SW 3,2 km/h (1 Bft)
29.10.2009 13:00 12,8 C 78 % 1020,7 hPa 0,0 l/m O-SO 4,7 km/h (1 Bft)
29.10.2009 14:00 14,1 C 71 % 1020,5 hPa 0,0 l/m O 6,8 km/h (2 Bft)
29.10.2009 15:00 14,1 C 68 % 1020,8 hPa 0,0 l/m NO 7,5 km/h (2 Bft)
29.10.2009 16:00 12,6 C 75 % 1021,1 hPa 0,2 l/m O-NO 3,9 km/h (1 Bft)
29.10.2009 17:00 9,2 C 89 % 1021,7 hPa 0,0 l/m N-NO 3,2 km/h (1 Bft)
29.10.2009 18:00 7,8 C 93 % 1022,2 hPa 0,0 l/m N-NO 3,7 km/h (1 Bft)
29.10.2009 19:00 7,3 C 95 % 1022,6 hPa 0,0 l/m N-NO 6,5 km/h (2 Bft)
29.10.2009 20:00 7,4 C 96 % 1023,1 hPa 0,0 l/m NO 9,4 km/h (2 Bft)
29.10.2009 21:00 7,6 C 97 % 1023,7 hPa 0,0 l/m O-NO 10,8 km/h (2 Bft)
29.10.2009 22:00 7,1 C 97 % 1024,2 hPa 0,0 l/m O-NO 12,2 km/h (2 Bft)
29.10.2009 23:00 6,7 C 97 % 1024,6 hPa 0,0 l/m O-NO 10,5 km/h (2 Bft)
30.10.2009 00:00 6,7 C 97 % 1024,7 hPa 0,0 l/m NO 9,7 km/h (2 Bft)
30.10.2009 01:00 7,0 C 95 % 1024,4 hPa 0,0 l/m O-SO 8,2 km/h (2 Bft)
30.10.2009 02:00 7,2 C 94 % 1024,2 hPa 0,0 l/m O 7,0 km/h (2 Bft)
30.10.2009 03:00 7,2 C 94 % 1024,1 hPa 0,0 l/m O-NO 7,2 km/h (2 Bft)
30.10.2009 04:00 7,0 C 94 % 1023,9 hPa 0,0 l/m O-NO 10,2 km/h (2 Bft)
30.10.2009 05:00 6,5 C 95 % 1024,1 hPa 0,0 l/m O-SO 10,8 km/h (2 Bft)
30.10.2009 06:00 6,4 C 96 % 1024,2 hPa 0,0 l/m O-NO 8,6 km/h (2 Bft)
30.10.2009 07:00 6,4 C 96 % 1024,9 hPa 0,0 l/m O-NO 13,3 km/h (3 Bft)
30.10.2009 08:00 6,5 C 96 % 1025,2 hPa 0,0 l/m O-SO 9,9 km/h (2 Bft)
30.10.2009 09:00 6,9 C 95 % 1025,3 hPa 0,0 l/m O-NO 10,6 km/h (2 Bft)
30.10.2009 10:00 7,2 C 93 % 1025,4 hPa 0,0 l/m O 15,3 km/h (3 Bft)
30.10.2009 11:00 7,5 C 92 % 1025,3 hPa 0,0 l/m O 13,7 km/h (3 Bft)
30.10.2009 12:00 8,5 C 87 % 1024,8 hPa 0,0 l/m O 16,8 km/h (3 Bft)
30.10.2009 13:00 9,3 C 83 % 1024,2 hPa 0,0 l/m O-SO 17,0 km/h (3 Bft)
30.10.2009 14:00 9,7 C 81 % 1024,0 hPa 0,0 l/m O-NO 19,0 km/h (3 Bft)
30.10.2009 15:00 9,4 C 82 % 1024,2 hPa 0,0 l/m O-NO 16,6 km/h (3 Bft)
30.10.2009 16:00 8,8 C 84 % 1024,0 hPa 0,0 l/m O-NO 9,4 km/h (2 Bft)
30.10.2009 17:00 8,1 C 87 % 1024,3 hPa 0,0 l/m NO 4,5 km/h (1 Bft)
30.10.2009 18:00 7,8 C 89 % 1024,5 hPa 0,0 l/m NO 9,5 km/h (2 Bft)
30.10.2009 19:00 7,3 C 90 % 1024,6 hPa 0,0 l/m NO 9,3 km/h (2 Bft)
30.10.2009 20:00 6,3 C 92 % 1024,9 hPa 0,0 l/m NO 9,0 km/h (2 Bft)
30.10.2009 21:00 6,1 C 93 % 1025,2 hPa 0,0 l/m O-NO 9,3 km/h (2 Bft)
30.10.2009 22:00 5,6 C 93 % 1025,2 hPa 0,0 l/m NO 10,1 km/h (2 Bft)
30.10.2009 23:00 4,8 C 93 % 1024,9 hPa 0,0 l/m O-SO 6,7 km/h (2 Bft)
31.10.2009 00:00 3,9 C 93 % 1025,0 hPa 0,0 l/m N-NO 5,2 km/h (1 Bft)
31.10.2009 01:00 3,7 C 94 % 1024,8 hPa 0,0 l/m N-NW 6,4 km/h (2 Bft)
31.10.2009 02:00 3,3 C 95 % 1024,7 hPa 0,0 l/m NW 6,8 km/h (2 Bft)
31.10.2009 03:00 3,3 C 95 % 1024,8 hPa 0,0 l/m N-NW 6,3 km/h (2 Bft)
31.10.2009 04:00 3,4 C 95 % 1024,9 hPa 0,0 l/m N-NO 7,2 km/h (2 Bft)
31.10.2009 05:00 3,3 C 95 % 1025,0 hPa 0,0 l/m N-NO 4,4 km/h (1 Bft)
31.10.2009 06:00 3,2 C 94 % 1025,5 hPa 0,0 l/m N-NO 6,7 km/h (2 Bft)
31.10.2009 07:00 3,2 C 95 % 1025,8 hPa 0,0 l/m N-NO 4,7 km/h (1 Bft)
31.10.2009 08:00 3,5 C 94 % 1026,2 hPa 0,0 l/m N-NO 4,4 km/h (1 Bft)
31.10.2009 09:00 3,8 C 94 % 1026,3 hPa 0,0 l/m N-NO 3,7 km/h (1 Bft)
31.10.2009 10:00 4,2 C 94 % 1026,3 hPa 0,0 l/m N 1,5 km/h (1 Bft)
31.10.2009 11:00 5,0 C 92 % 1026,3 hPa 0,0 l/m N 1,6 km/h (1 Bft)
31.10.2009 12:00 6,1 C 90 % 1025,9 hPa 0,0 l/m NO 0,9 km/h (0 Bft)
31.10.2009 13:00 7,0 C 87 % 1025,8 hPa 0,0 l/m O 3,7 km/h (1 Bft)
31.10.2009 14:00 7,4 C 85 % 1025,3 hPa 0,0 l/m O-SO 4,5 km/h (1 Bft)
31.10.2009 15:00 7,8 C 84 % 1025,2 hPa 0,0 l/m S-SW 4,5 km/h (1 Bft)
31.10.2009 16:00 7,7 C 84 % 1024,8 hPa 0,0 l/m S-SO 2,8 km/h (1 Bft)
31.10.2009 17:00 6,9 C 86 % 1025,2 hPa 0,0 l/m N 0,0 km/h (0 Bft)
31.10.2009 18:00 5,4 C 89 % 1025,6 hPa 0,0 l/m S 0,4 km/h (0 Bft)
31.10.2009 19:00 4,2 C 92 % 1025,5 hPa 0,0 l/m N 0,3 km/h (0 Bft)
31.10.2009 20:00 3,8 C 93 % 1025,6 hPa 0,0 l/m N 0,0 km/h (0 Bft)
31.10.2009 21:00 3,3 C 94 % 1025,5 hPa 0,0 l/m N 0,1 km/h (0 Bft)
31.10.2009 22:00 3,2 C 95 % 1025,4 hPa 0,0 l/m N 0,0 km/h (0 Bft)
31.10.2009 23:00 2,8 C 94 % 1025,0 hPa 0,0 l/m N 0,0 km/h (0 Bft)
01.11.2009 00:00 2,4 C 95 % 1024,5 hPa 0,0 l/m N 0,0 km/h (0 Bft)
01.11.2009 01:00 1,8 C 95 % 1024,2 hPa 0,0 l/m N 0,0 km/h (0 Bft)
01.11.2009 02:00 1,1 C 95 % 1024,0 hPa 0,0 l/m N 0,0 km/h (0 Bft)
01.11.2009 03:00 0,5 C 95 % 1023,8 hPa 0,0 l/m N 0,8 km/h (0 Bft)
01.11.2009 04:00 0,7 C 96 % 1023,6 hPa 0,0 l/m N 0,3 km/h (0 Bft)
01.11.2009 05:00 0,8 C 96 % 1023,3 hPa 0,0 l/m N 0,1 km/h (0 Bft)
01.11.2009 06:00 0,8 C 97 % 1022,8 hPa 0,0 l/m N 0,3 km/h (0 Bft)
01.11.2009 07:00 1,1 C 97 % 1022,6 hPa 0,0 l/m N 0,4 km/h (0 Bft)
01.11.2009 08:00 1,8 C 98 % 1022,7 hPa 0,0 l/m S 0,4 km/h (0 Bft)
01.11.2009 09:00 3,1 C 99 % 1022,1 hPa 0,0 l/m S 3,5 km/h (1 Bft)
01.11.2009 10:00 5,2 C 99 % 1021,2 hPa 0,0 l/m S-SW 7,1 km/h (2 Bft)
01.11.2009 11:00 8,2 C 92 % 1020,0 hPa 0,0 l/m S-SO 7,4 km/h (2 Bft)
01.11.2009 12:00 10,3 C 86 % 1018,4 hPa 0,0 l/m S-SO 7,5 km/h (2 Bft)
01.11.2009 13:00 12,3 C 80 % 1016,9 hPa 0,0 l/m S-SW 8,2 km/h (2 Bft)
01.11.2009 14:00 13,1 C 77 % 1015,6 hPa 0,0 l/m SW 7,3 km/h (2 Bft)
01.11.2009 15:00 12,7 C 77 % 1014,7 hPa 0,0 l/m S-SW 5,3 km/h (1 Bft)
01.11.2009 16:00 10,9 C 85 % 1013,9 hPa 0,0 l/m N 0,7 km/h (0 Bft)
01.11.2009 17:00 8,3 C 92 % 1013,5 hPa 0,0 l/m N 0,5 km/h (0 Bft)
01.11.2009 18:00 6,8 C 94 % 1012,8 hPa 0,0 l/m N 0,0 km/h (0 Bft)
01.11.2009 19:00 6,0 C 96 % 1012,1 hPa 0,0 l/m N 0,1 km/h (0 Bft)
01.11.2009 20:00 5,6 C 97 % 1011,0 hPa 0,0 l/m N 0,0 km/h (0 Bft)
01.11.2009 21:00 5,5 C 97 % 1010,1 hPa 0,0 l/m N 0,8 km/h (0 Bft)
01.11.2009 22:00 6,1 C 98 % 1009,1 hPa 0,0 l/m N 1,3 km/h (1 Bft)
01.11.2009 23:00 6,2 C 97 % 1008,2 hPa 0,0 l/m NW 0,9 km/h (0 Bft)
Min-Datum _ 01.11.09 27.10.09 01.11.09 - - 26.10.09
_ Min-Zeit 03:25 12:35 23:40 - - 00:20
Minimum _ 0,4 C 60 % 1007,7 hPa - - 0,0 km/h (0 Bft)
Max-Datum _ 29.10.09 26.10.09 31.10.09 26.10.09 - 30.10.09
_ Max-Zeit 14:40 08:30 09:15 02:45 - 14:05
Maximum _ 14,3 C 99 % 1026,5 hPa 0,2 l/m - 24,1 km/h
O (4 Bft)
Durchschnitt _ 7,0 C 91 % 1021,6 hPa #0,6 l/m O-NO 4,5 km/h (1 Bft)